Accueil
METAR-TAF:

METAR-TAF

Aéroports :

Nîmes, France

Aéroport de Nîmes–Alès–Camargue–Cévennes. Garons

latitude: 43-45N, longitude: 004-25E, altitude: 94 m

Observation

Le bulletin a été fait il y a 17 minutes, à 10:30 UTC
Vent 12 kt de nord/nord-ouest, variant entre ouest/nord-ouest et nord/nord-est
Température 27°C
Humidité 37%
Pression 1013 hPa
Visibilité 10 km ou plus
pas de nuages en-dessous de 1500 mètres et pas de cumulonimbus.

METAR: LFTW 261030Z AUTO 34012KT 290V020 CAVOK 27/11 Q1013 TEMPO 35017G27KT

Heure: 12:47 (10:47 UTC)

Prévision

Le bulletin a été fait il y a 2 heures et 47 minutes, à 08:00 UTC
Prévision valable du 26 à 09 UTC au 27 à 09 UTC
Vent 12 kt de nord/nord-ouest
Visibilité 10 km ou plus
pas de nuages en-dessous de 1500 mètres et pas de cumulonimbus.
Temporairement
du 26 à 10 UTC au 26 à 18 UTC
Vent 17 kt de nord avec des rafales jusqu'à 27 kt

TAF: LFTW 260800Z 2609/2709 34012KT CAVOK TEMPO 2610/2618 35017G27KT

Observations et prévisions météorologiques de plus de 4000 aéroports (messages METAR et TAF).

Les stations disponibles sont représentées par des disques jaunes et rouges sur la carte.

Passer la souris dessus pour voir le nom de la station.

Cliquer dessus pour voir les observations et prévisions météorologiques.

Pour changer de carte: cliquez sur les boutons verts avec une croix noire pour zoomer, sur le bouton vert avec un tiret pour effectuer un zoom arrière, ou sur les flèches vertes pour les cartes adjacentes.


METAR-TAF: